sensor_id;sensor_type;location;lat;lon;timestamp;pressure;altitude;pressure_sealevel;temperature;humidity
22775;BME280;11554;51.106;3.684;2023-04-26T00:00:00;101962.97;;;0.78;92.69
22775;BME280;11554;51.106;3.684;2023-04-26T00:05:00;101969.41;;;0.88;94.42
22775;BME280;11554;51.106;3.684;2023-04-26T00:10:00;101976.9;;;0.80;93.63
22775;BME280;11554;51.106;3.684;2023-04-26T00:15:00;101974.26000000001;;;0.78;94.62
22775;BME280;11554;51.106;3.684;2023-04-26T00:20:00;101975.06;;;0.92;96.61
22775;BME280;11554;51.106;3.684;2023-04-26T00:25:00;101979.35;;;0.71;94.45
22775;BME280;11554;51.106;3.684;2023-04-26T00:30:00;101976.28;;;0.63;95.01
22775;BME280;11554;51.106;3.684;2023-04-26T00:35:01;101972.13;;;0.59;95.5
22775;BME280;11554;51.106;3.684;2023-04-26T00:40:00;101969.08;;;0.47;94.11
22775;BME280;11554;51.106;3.684;2023-04-26T00:45:00;101965.19;;;0.43;95.0
22775;BME280;11554;51.106;3.684;2023-04-26T00:50:00;101971.96;;;0.33;92.95
22775;BME280;11554;51.106;3.684;2023-04-26T00:55:00;101970.51;;;0.21;92.99
22775;BME280;11554;51.106;3.684;2023-04-26T01:00:00;101971.57999999999;;;0.25;95.26
22775;BME280;11554;51.106;3.684;2023-04-26T01:05:00;101968.48;;;0.12;93.2
22775;BME280;11554;51.106;3.684;2023-04-26T01:10:00;101967.1;;;0.06;93.33
22775;BME280;11554;51.106;3.684;2023-04-26T01:15:00;101963.01;;;0.01;93.13
22775;BME280;11554;51.106;3.684;2023-04-26T01:20:00;101959.14;;;-0.01;93.71
22775;BME280;11554;51.106;3.684;2023-04-26T01:25:00;101957.79;;;-0.04;93.92
22775;BME280;11554;51.106;3.684;2023-04-26T01:30:00;101959.20999999999;;;-0.05;93.88
22775;BME280;11554;51.106;3.684;2023-04-26T01:35:00;101958.92;;;-0.05;94.07
22775;BME280;11554;51.106;3.684;2023-04-26T01:40:00;101958.79;;;-0.07;93.97
22775;BME280;11554;51.106;3.684;2023-04-26T01:45:00;101953.93000000001;;;-0.10;93.75
22775;BME280;11554;51.106;3.684;2023-04-26T01:50:00;101955.16;;;-0.04;95.39
22775;BME280;11554;51.106;3.684;2023-04-26T01:55:00;101953.99;;;-0.13;94.59
22775;BME280;11554;51.106;3.684;2023-04-26T02:00:00;101944.17;;;-0.15;95.03
22775;BME280;11554;51.106;3.684;2023-04-26T02:05:00;101942.38;;;-0.08;96.59
22775;BME280;11554;51.106;3.684;2023-04-26T02:10:00;101937.13;;;-0.04;96.49
22775;BME280;11554;51.106;3.684;2023-04-26T02:15:00;101930.84;;;0.10;99.0
22775;BME280;11554;51.106;3.684;2023-04-26T02:20:00;101934.44;;;0.06;98.21
22775;BME280;11554;51.106;3.684;2023-04-26T02:25:00;101930.39;;;-0.01;96.81
22775;BME280;11554;51.106;3.684;2023-04-26T02:30:00;101934.39;;;-0.04;96.86
22775;BME280;11554;51.106;3.684;2023-04-26T02:35:00;101934.59;;;0.06;99.04
22775;BME280;11554;51.106;3.684;2023-04-26T02:40:00;101931.05;;;0.13;99.38
22775;BME280;11554;51.106;3.684;2023-04-26T02:45:00;101930.86;;;0.17;100.0
22775;BME280;11554;51.106;3.684;2023-04-26T02:50:00;101924.99;;;0.31;100.0
22775;BME280;11554;51.106;3.684;2023-04-26T02:55:00;101927.39;;;0.14;100.0
22775;BME280;11554;51.106;3.684;2023-04-26T03:00:00;101933.58;;;-0.03;98.03
22775;BME280;11554;51.106;3.684;2023-04-26T03:05:00;101933.64;;;0.15;100.0
22775;BME280;11554;51.106;3.684;2023-04-26T03:10:00;101930.22;;;0.26;100.0
22775;BME280;11554;51.106;3.684;2023-04-26T03:15:00;101931.55;;;0.15;100.0
22775;BME280;11554;51.106;3.684;2023-04-26T03:20:00;101922.08;;;0.06;100.0
22775;BME280;11554;51.106;3.684;2023-04-26T03:25:00;101919.96;;;0.11;100.0
22775;BME280;11554;51.106;3.684;2023-04-26T03:30:00;101902.12;;;0.25;100.0
22775;BME280;11554;51.106;3.684;2023-04-26T03:35:00;101896.93;;;0.25;100.0
22775;BME280;11554;51.106;3.684;2023-04-26T03:40:00;101901.81;;;0.24;100.0
22775;BME280;11554;51.106;3.684;2023-04-26T03:45:00;101905.65000000001;;;0.05;100.0
22775;BME280;11554;51.106;3.684;2023-04-26T03:50:00;101903.34;;;0.03;100.0
22775;BME280;11554;51.106;3.684;2023-04-26T03:55:00;101897.41;;;0.02;100.0
22775;BME280;11554;51.106;3.684;2023-04-26T04:00:00;101893.98;;;0.06;100.0
22775;BME280;11554;51.106;3.684;2023-04-26T04:05:00;101900.09;;;0.05;99.44
22775;BME280;11554;51.106;3.684;2023-04-26T04:10:00;101894.53;;;0.13;100.0
22775;BME280;11554;51.106;3.684;2023-04-26T04:15:00;101894.70999999999;;;0.06;99.35
22775;BME280;11554;51.106;3.684;2023-04-26T04:20:01;101886.83;;;0.04;98.38
22775;BME280;11554;51.106;3.684;2023-04-26T04:25:00;101882.56;;;0.04;97.8
22775;BME280;11554;51.106;3.684;2023-04-26T04:30:00;101889.62;;;0.06;98.6
22775;BME280;11554;51.106;3.684;2023-04-26T04:35:00;101897.99;;;0.03;97.58
22775;BME280;11554;51.106;3.684;2023-04-26T04:40:00;101898.26000000001;;;0.11;100.0
22775;BME280;11554;51.106;3.684;2023-04-26T04:45:00;101897.78;;;0.14;100.0
22775;BME280;11554;51.106;3.684;2023-04-26T04:50:00;101895.53;;;0.23;100.0
22775;BME280;11554;51.106;3.684;2023-04-26T04:55:00;101901.86;;;0.28;100.0
22775;BME280;11554;51.106;3.684;2023-04-26T05:00:00;101907.53;;;0.37;100.0
22775;BME280;11554;51.106;3.684;2023-04-26T05:05:00;101916.27;;;0.63;100.0
22775;BME280;11554;51.106;3.684;2023-04-26T05:10:00;101921.01;;;0.92;100.0
22775;BME280;11554;51.106;3.684;2023-04-26T05:15:00;101924.51999999999;;;1.21;100.0
22775;BME280;11554;51.106;3.684;2023-04-26T05:20:00;101924.78;;;1.71;100.0
22775;BME280;11554;51.106;3.684;2023-04-26T05:25:00;101937.01999999999;;;2.01;100.0
22775;BME280;11554;51.106;3.684;2023-04-26T05:30:00;101936.81;;;2.26;100.0
22775;BME280;11554;51.106;3.684;2023-04-26T05:35:00;101941.02;;;2.41;100.0
22775;BME280;11554;51.106;3.684;2023-04-26T05:40:00;101940.31;;;2.70;100.0
22775;BME280;11554;51.106;3.684;2023-04-26T05:45:00;101945.34;;;3.04;100.0
22775;BME280;11554;51.106;3.684;2023-04-26T05:50:00;101947.29999999999;;;3.66;100.0
22775;BME280;11554;51.106;3.684;2023-04-26T05:55:00;101939.56;;;4.16;100.0
22775;BME280;11554;51.106;3.684;2023-04-26T06:00:01;101939.86;;;4.59;100.0
22775;BME280;11554;51.106;3.684;2023-04-26T06:05:00;101933.64;;;5.28;100.0
22775;BME280;11554;51.106;3.684;2023-04-26T06:10:00;101930.42;;;5.57;100.0
22775;BME280;11554;51.106;3.684;2023-04-26T06:15:00;101925.39;;;5.48;100.0
22775;BME280;11554;51.106;3.684;2023-04-26T06:20:00;101930.39;;;5.40;100.0
22775;BME280;11554;51.106;3.684;2023-04-26T06:25:00;101928.87;;;5.51;100.0
22775;BME280;11554;51.106;3.684;2023-04-26T06:30:00;101934.11;;;6.02;100.0
22775;BME280;11554;51.106;3.684;2023-04-26T06:35:00;101943.78;;;7.53;100.0
22775;BME280;11554;51.106;3.684;2023-04-26T06:40:00;101942.62999999999;;;8.08;100.0
22775;BME280;11554;51.106;3.684;2023-04-26T06:45:00;101948.49;;;7.88;96.64
22775;BME280;11554;51.106;3.684;2023-04-26T06:50:01;101955.8;;;7.56;93.89
22775;BME280;11554;51.106;3.684;2023-04-26T06:55:00;101948.91;;;7.60;94.42
22775;BME280;11554;51.106;3.684;2023-04-26T07:00:00;101956.94;;;7.87;95.99
22775;BME280;11554;51.106;3.684;2023-04-26T07:05:00;101957.37000000001;;;8.20;96.17
22775;BME280;11554;51.106;3.684;2023-04-26T07:10:00;101957.67;;;8.21;94.58
22775;BME280;11554;51.106;3.684;2023-04-26T07:15:00;101962.26000000001;;;8.29;94.34
22775;BME280;11554;51.106;3.684;2023-04-26T07:20:00;101968.22;;;8.57;93.32
22775;BME280;11554;51.106;3.684;2023-04-26T07:25:00;101972.11;;;8.73;91.81
22775;BME280;11554;51.106;3.684;2023-04-26T07:30:00;101964.78;;;8.90;89.93
22775;BME280;11554;51.106;3.684;2023-04-26T07:35:00;101958.8;;;9.28;90.87
22775;BME280;11554;51.106;3.684;2023-04-26T07:40:00;101949.28;;;9.59;90.68
22775;BME280;11554;51.106;3.684;2023-04-26T07:45:00;101948.53;;;9.76;90.13
22775;BME280;11554;51.106;3.684;2023-04-26T07:50:00;101948.53;;;10.76;91.3
22775;BME280;11554;51.106;3.684;2023-04-26T07:55:00;101949.47;;;11.56;86.44
22775;BME280;11554;51.106;3.684;2023-04-26T08:00:00;101943.24;;;11.92;80.26
22775;BME280;11554;51.106;3.684;2023-04-26T08:05:00;101948.69;;;11.63;75.6
22775;BME280;11554;51.106;3.684;2023-04-26T08:10:00;101953.12;;;11.55;78.5
22775;BME280;11554;51.106;3.684;2023-04-26T08:15:00;101950.22;;;12.41;73.6
22775;BME280;11554;51.106;3.684;2023-04-26T08:20:00;101945.12;;;12.68;72.22
22775;BME280;11554;51.106;3.684;2023-04-26T08:25:00;101942.5;;;12.91;71.58
22775;BME280;11554;51.106;3.684;2023-04-26T08:30:00;101943.34;;;13.10;70.09
22775;BME280;11554;51.106;3.684;2023-04-26T08:35:00;101940.62;;;13.24;69.31
22775;BME280;11554;51.106;3.684;2023-04-26T08:40:00;101946.59;;;13.09;67.36
22775;BME280;11554;51.106;3.684;2023-04-26T08:45:00;101948.44;;;12.03;66.7
22775;BME280;11554;51.106;3.684;2023-04-26T08:50:00;101950.9;;;11.78;66.31
22775;BME280;11554;51.106;3.684;2023-04-26T08:55:00;101950.0;;;12.36;68.17
22775;BME280;11554;51.106;3.684;2023-04-26T09:00:00;101946.53;;;12.27;65.75
22775;BME280;11554;51.106;3.684;2023-04-26T09:05:00;101941.63;;;12.12;65.76
22775;BME280;11554;51.106;3.684;2023-04-26T09:10:00;101942.40999999999;;;12.18;64.9
22775;BME280;11554;51.106;3.684;2023-04-26T09:15:00;101938.4;;;12.70;68.87
22775;BME280;11554;51.106;3.684;2023-04-26T09:20:01;101937.75;;;13.61;68.57
22775;BME280;11554;51.106;3.684;2023-04-26T09:25:00;101935.89;;;13.59;66.16
22775;BME280;11554;51.106;3.684;2023-04-26T09:30:02;101934.69;;;13.77;65.33
22775;BME280;11554;51.106;3.684;2023-04-26T09:35:00;101934.25;;;13.91;64.5
22775;BME280;11554;51.106;3.684;2023-04-26T09:40:00;101929.16;;;14.24;62.06
22775;BME280;11554;51.106;3.684;2023-04-26T09:45:04;101929.1;;;14.39;60.07
22775;BME280;11554;51.106;3.684;2023-04-26T09:50:00;101934.79999999999;;;14.13;62.27
22775;BME280;11554;51.106;3.684;2023-04-26T09:55:00;101938.64;;;13.26;62.31
22775;BME280;11554;51.106;3.684;2023-04-26T10:05:00;101935.0;;;12.88;62.83
22775;BME280;11554;51.106;3.684;2023-04-26T10:10:00;101930.75;;;12.93;61.73
22775;BME280;11554;51.106;3.684;2023-04-26T10:15:02;101928.56;;;12.91;61.96
22775;BME280;11554;51.106;3.684;2023-04-26T10:20:00;101923.51999999999;;;13.65;63.94
22775;BME280;11554;51.106;3.684;2023-04-26T10:25:00;101916.92;;;14.69;62.17
22775;BME280;11554;51.106;3.684;2023-04-26T10:30:05;101920.53;;;15.20;58.8
22775;BME280;11554;51.106;3.684;2023-04-26T10:35:08;101918.81;;;13.71;58.26
22775;BME280;11554;51.106;3.684;2023-04-26T10:45:01;101904.04999999999;;;13.10;59.16
22775;BME280;11554;51.106;3.684;2023-04-26T10:50:01;101895.39;;;14.05;60.64
22775;BME280;11554;51.106;3.684;2023-04-26T10:55:00;101891.5;;;13.26;58.67
22775;BME280;11554;51.106;3.684;2023-04-26T11:05:01;101883.14;;;13.24;58.35
22775;BME280;11554;51.106;3.684;2023-04-26T11:10:00;101877.86;;;14.74;60.76
22775;BME280;11554;51.106;3.684;2023-04-26T11:15:00;101875.33;;;15.19;56.82
22775;BME280;11554;51.106;3.684;2023-04-26T11:20:03;101880.06;;;15.63;54.67
22775;BME280;11554;51.106;3.684;2023-04-26T11:25:00;101881.84;;;16.64;55.45
22775;BME280;11554;51.106;3.684;2023-04-26T11:30:01;101878.19;;;16.89;53.53
22775;BME280;11554;51.106;3.684;2023-04-26T11:35:00;101874.64;;;17.21;55.54
22775;BME280;11554;51.106;3.684;2023-04-26T11:40:00;101870.75;;;16.40;52.59
22775;BME280;11554;51.106;3.684;2023-04-26T11:45:00;101866.17;;;15.08;53.25
22775;BME280;11554;51.106;3.684;2023-04-26T11:50:00;101861.11;;;15.05;54.74
22775;BME280;11554;51.106;3.684;2023-04-26T11:55:00;101865.88;;;15.40;58.54
22775;BME280;11554;51.106;3.684;2023-04-26T12:00:08;101867.81;;;15.84;55.37
22775;BME280;11554;51.106;3.684;2023-04-26T12:05:00;101875.86;;;15.93;53.25
22775;BME280;11554;51.106;3.684;2023-04-26T12:15:00;101876.23;;;14.99;57.96
22775;BME280;11554;51.106;3.684;2023-04-26T12:20:07;101879.1;;;15.06;56.53
22775;BME280;11554;51.106;3.684;2023-04-26T12:25:04;101879.06;;;15.66;52.4
22775;BME280;11554;51.106;3.684;2023-04-26T12:30:00;101877.03;;;15.84;52.33
22775;BME280;11554;51.106;3.684;2023-04-26T12:35:00;101877.76;;;16.34;56.11
22775;BME280;11554;51.106;3.684;2023-04-26T12:40:00;101873.35;;;15.97;53.81
22775;BME280;11554;51.106;3.684;2023-04-26T12:45:00;101868.52;;;16.96;52.51
22775;BME280;11554;51.106;3.684;2023-04-26T12:50:00;101868.8;;;16.62;53.67
22775;BME280;11554;51.106;3.684;2023-04-26T12:55:00;101872.97;;;14.94;53.41
22775;BME280;11554;51.106;3.684;2023-04-26T13:00:00;101863.36;;;15.21;54.1
22775;BME280;11554;51.106;3.684;2023-04-26T13:05:00;101863.81;;;14.86;56.19
22775;BME280;11554;51.106;3.684;2023-04-26T13:10:01;101858.73;;;16.29;54.85
22775;BME280;11554;51.106;3.684;2023-04-26T13:15:00;101853.2;;;17.09;52.01
22775;BME280;11554;51.106;3.684;2023-04-26T13:20:00;101847.22;;;17.45;54.81
22775;BME280;11554;51.106;3.684;2023-04-26T13:25:00;101849.27;;;18.99;49.87
22775;BME280;11554;51.106;3.684;2023-04-26T13:30:00;101850.14;;;19.29;50.11
22775;BME280;11554;51.106;3.684;2023-04-26T13:35:00;101855.26999999999;;;19.21;51.08
22775;BME280;11554;51.106;3.684;2023-04-26T13:40:00;101867.11;;;18.46;48.56
22775;BME280;11554;51.106;3.684;2023-04-26T13:45:00;101859.77;;;17.63;50.96
22775;BME280;11554;51.106;3.684;2023-04-26T13:50:00;101861.3;;;16.49;50.44
22775;BME280;11554;51.106;3.684;2023-04-26T13:55:00;101864.84;;;16.31;51.08
22775;BME280;11554;51.106;3.684;2023-04-26T14:00:00;101859.81;;;16.27;54.41
22775;BME280;11554;51.106;3.684;2023-04-26T14:05:00;101863.4;;;16.27;51.08
22775;BME280;11554;51.106;3.684;2023-04-26T14:10:00;101858.25;;;15.77;51.68
22775;BME280;11554;51.106;3.684;2023-04-26T14:15:00;101855.0;;;15.27;52.17
22775;BME280;11554;51.106;3.684;2023-04-26T14:20:00;101848.87999999999;;;15.03;53.44
22775;BME280;11554;51.106;3.684;2023-04-26T14:25:00;101844.83;;;14.62;53.49
22775;BME280;11554;51.106;3.684;2023-04-26T14:30:00;101834.2;;;15.14;53.71
22775;BME280;11554;51.106;3.684;2023-04-26T14:35:00;101827.03;;;15.56;52.47
22775;BME280;11554;51.106;3.684;2023-04-26T14:40:00;101839.09;;;15.22;52.93
22775;BME280;11554;51.106;3.684;2023-04-26T14:45:00;101833.98999999999;;;15.10;53.83
22775;BME280;11554;51.106;3.684;2023-04-26T14:50:00;101835.35;;;14.81;53.98
22775;BME280;11554;51.106;3.684;2023-04-26T14:55:00;101830.62999999999;;;15.11;53.51
22775;BME280;11554;51.106;3.684;2023-04-26T15:00:00;101828.94;;;15.57;52.86
22775;BME280;11554;51.106;3.684;2023-04-26T15:05:00;101822.31;;;15.42;54.38
22775;BME280;11554;51.106;3.684;2023-04-26T15:10:00;101824.67;;;15.64;53.21
22775;BME280;11554;51.106;3.684;2023-04-26T15:15:00;101819.25;;;14.10;55.06
22775;BME280;11554;51.106;3.684;2023-04-26T15:20:00;101815.07;;;14.38;55.89
22775;BME280;11554;51.106;3.684;2023-04-26T15:25:00;101815.08;;;15.56;52.93
22775;BME280;11554;51.106;3.684;2023-04-26T15:30:00;101812.05;;;17.02;53.7
22775;BME280;11554;51.106;3.684;2023-04-26T15:35:00;101816.17;;;15.00;52.19
22775;BME280;11554;51.106;3.684;2023-04-26T15:40:00;101812.73;;;15.68;53.32
22775;BME280;11554;51.106;3.684;2023-04-26T15:45:00;101815.03;;;15.33;52.05
22775;BME280;11554;51.106;3.684;2023-04-26T15:50:00;101811.39;;;14.82;53.38
22775;BME280;11554;51.106;3.684;2023-04-26T15:55:00;101808.8;;;14.54;53.47
22775;BME280;11554;51.106;3.684;2023-04-26T16:00:00;101804.74;;;15.54;54.17
22775;BME280;11554;51.106;3.684;2023-04-26T16:05:00;101807.53;;;14.31;53.44
22775;BME280;11554;51.106;3.684;2023-04-26T16:10:00;101805.22;;;14.32;54.28
22775;BME280;11554;51.106;3.684;2023-04-26T16:15:00;101803.31;;;14.51;53.53
22775;BME280;11554;51.106;3.684;2023-04-26T16:20:00;101803.27;;;13.80;54.96
22775;BME280;11554;51.106;3.684;2023-04-26T16:25:00;101805.1;;;14.16;55.95
22775;BME280;11554;51.106;3.684;2023-04-26T16:30:00;101807.14;;;14.55;54.04
22775;BME280;11554;51.106;3.684;2023-04-26T16:35:00;101806.98;;;14.54;55.31
22775;BME280;11554;51.106;3.684;2023-04-26T16:40:00;101802.17;;;14.23;56.05
22775;BME280;11554;51.106;3.684;2023-04-26T16:45:00;101802.19;;;14.18;54.88
22775;BME280;11554;51.106;3.684;2023-04-26T16:50:00;101808.7;;;13.95;54.84
22775;BME280;11554;51.106;3.684;2023-04-26T16:55:00;101809.75;;;13.77;55.89
22775;BME280;11554;51.106;3.684;2023-04-26T17:00:00;101815.58;;;14.19;55.06
22775;BME280;11554;51.106;3.684;2023-04-26T17:05:00;101817.5;;;13.82;56.89
22775;BME280;11554;51.106;3.684;2023-04-26T17:10:00;101818.2;;;13.57;57.35
22775;BME280;11554;51.106;3.684;2023-04-26T17:15:00;101825.73;;;13.72;56.34
22775;BME280;11554;51.106;3.684;2023-04-26T17:20:00;101832.93;;;13.31;57.39
22775;BME280;11554;51.106;3.684;2023-04-26T17:25:00;101839.76;;;12.99;58.22
22775;BME280;11554;51.106;3.684;2023-04-26T17:30:00;101839.12;;;12.82;59.79
22775;BME280;11554;51.106;3.684;2023-04-26T17:35:00;101840.23;;;12.71;59.72
22775;BME280;11554;51.106;3.684;2023-04-26T17:40:00;101840.23;;;12.20;61.12
22775;BME280;11554;51.106;3.684;2023-04-26T17:45:00;101846.26;;;11.95;61.97
22775;BME280;11554;51.106;3.684;2023-04-26T17:50:00;101848.53;;;11.58;62.58
22775;BME280;11554;51.106;3.684;2023-04-26T17:55:00;101850.76000000001;;;11.39;64.21
22775;BME280;11554;51.106;3.684;2023-04-26T18:00:00;101851.11;;;11.15;64.27
22775;BME280;11554;51.106;3.684;2023-04-26T18:05:00;101859.79999999999;;;10.88;65.15
22775;BME280;11554;51.106;3.684;2023-04-26T18:10:00;101865.8;;;10.61;65.92
22775;BME280;11554;51.106;3.684;2023-04-26T18:15:00;101866.03;;;10.38;67.01
22775;BME280;11554;51.106;3.684;2023-04-26T18:20:00;101869.67;;;10.13;67.62
22775;BME280;11554;51.106;3.684;2023-04-26T18:25:00;101870.79;;;9.85;68.99
22775;BME280;11554;51.106;3.684;2023-04-26T18:30:00;101878.47;;;9.64;69.75
22775;BME280;11554;51.106;3.684;2023-04-26T18:35:00;101881.84;;;9.38;71.48
22775;BME280;11554;51.106;3.684;2023-04-26T18:40:00;101877.45;;;9.16;72.86
22775;BME280;11554;51.106;3.684;2023-04-26T18:45:00;101881.95;;;8.94;74.03
22775;BME280;11554;51.106;3.684;2023-04-26T18:50:00;101885.63;;;8.71;76.2
22775;BME280;11554;51.106;3.684;2023-04-26T18:55:00;101889.76;;;8.51;76.74
22775;BME280;11554;51.106;3.684;2023-04-26T19:00:00;101892.62999999999;;;8.34;77.62
22775;BME280;11554;51.106;3.684;2023-04-26T19:05:00;101897.53;;;8.17;78.78
22775;BME280;11554;51.106;3.684;2023-04-26T19:10:00;101896.8;;;8.01;79.43
22775;BME280;11554;51.106;3.684;2023-04-26T19:15:00;101903.54999999999;;;7.84;79.95
22775;BME280;11554;51.106;3.684;2023-04-26T19:20:00;101912.31;;;7.66;81.16
22775;BME280;11554;51.106;3.684;2023-04-26T19:25:00;101911.99;;;7.48;81.27
22775;BME280;11554;51.106;3.684;2023-04-26T19:30:00;101912.31;;;7.31;82.87
22775;BME280;11554;51.106;3.684;2023-04-26T19:35:00;101915.12;;;7.20;83.52
22775;BME280;11554;51.106;3.684;2023-04-26T19:40:00;101910.55;;;7.09;84.11
22775;BME280;11554;51.106;3.684;2023-04-26T19:45:00;101910.20999999999;;;6.96;85.06
22775;BME280;11554;51.106;3.684;2023-04-26T19:50:00;101914.37;;;6.85;85.69
22775;BME280;11554;51.106;3.684;2023-04-26T19:55:00;101908.53;;;6.69;86.19
22775;BME280;11554;51.106;3.684;2023-04-26T20:00:00;101918.40999999999;;;6.59;86.39
22775;BME280;11554;51.106;3.684;2023-04-26T20:05:00;101911.84;;;6.48;86.51
22775;BME280;11554;51.106;3.684;2023-04-26T20:10:00;101917.95;;;6.35;86.55
22775;BME280;11554;51.106;3.684;2023-04-26T20:15:00;101923.87999999999;;;6.23;87.02
22775;BME280;11554;51.106;3.684;2023-04-26T20:20:00;101925.99;;;6.21;88.36
22775;BME280;11554;51.106;3.684;2023-04-26T20:25:00;101927.8;;;6.12;88.88
22775;BME280;11554;51.106;3.684;2023-04-26T20:30:00;101922.92;;;6.02;89.29
22775;BME280;11554;51.106;3.684;2023-04-26T20:35:00;101935.69;;;5.93;89.49
22775;BME280;11554;51.106;3.684;2023-04-26T20:40:00;101929.58;;;5.85;90.16
22775;BME280;11554;51.106;3.684;2023-04-26T20:45:00;101937.0;;;5.75;90.03
22775;BME280;11554;51.106;3.684;2023-04-26T20:50:00;101933.33;;;5.67;90.65
22775;BME280;11554;51.106;3.684;2023-04-26T20:55:00;101934.33;;;5.54;90.45
22775;BME280;11554;51.106;3.684;2023-04-26T21:00:00;101932.45;;;5.46;90.59
22775;BME280;11554;51.106;3.684;2023-04-26T21:05:00;101933.09000000001;;;5.44;91.71
22775;BME280;11554;51.106;3.684;2023-04-26T21:10:00;101939.51;;;5.44;91.95
22775;BME280;11554;51.106;3.684;2023-04-26T21:15:00;101935.76000000001;;;5.41;92.4
22775;BME280;11554;51.106;3.684;2023-04-26T21:20:00;101927.19;;;5.39;92.98
22775;BME280;11554;51.106;3.684;2023-04-26T21:25:00;101934.02;;;5.35;92.89
22775;BME280;11554;51.106;3.684;2023-04-26T21:30:00;101937.22;;;5.34;93.42
22775;BME280;11554;51.106;3.684;2023-04-26T21:35:00;101933.5;;;5.29;93.63
22775;BME280;11554;51.106;3.684;2023-04-26T21:40:00;101934.3;;;5.23;94.34
22775;BME280;11554;51.106;3.684;2023-04-26T21:45:00;101927.59;;;5.17;94.68
22775;BME280;11554;51.106;3.684;2023-04-26T21:50:00;101930.83;;;5.07;94.62
22775;BME280;11554;51.106;3.684;2023-04-26T21:55:00;101933.81000000001;;;4.95;94.43
22775;BME280;11554;51.106;3.684;2023-04-26T22:00:00;101932.03;;;4.83;94.92
22775;BME280;11554;51.106;3.684;2023-04-26T22:05:00;101932.61;;;4.74;95.67
22775;BME280;11554;51.106;3.684;2023-04-26T22:10:00;101929.64;;;4.59;95.4
22775;BME280;11554;51.106;3.684;2023-04-26T22:15:00;101933.48999999999;;;4.49;96.56
22775;BME280;11554;51.106;3.684;2023-04-26T22:20:00;101940.43000000001;;;4.46;96.99
22775;BME280;11554;51.106;3.684;2023-04-26T22:25:00;101938.84000000001;;;4.40;97.08
22775;BME280;11554;51.106;3.684;2023-04-26T22:30:00;101949.13;;;4.41;97.4
22775;BME280;11554;51.106;3.684;2023-04-26T22:35:00;101950.98000000001;;;4.30;97.3
22775;BME280;11554;51.106;3.684;2023-04-26T22:40:00;101957.97;;;4.13;95.73
22775;BME280;11554;51.106;3.684;2023-04-26T22:45:00;101965.59;;;4.01;96.57
22775;BME280;11554;51.106;3.684;2023-04-26T22:50:00;101962.94;;;4.08;98.37
22775;BME280;11554;51.106;3.684;2023-04-26T22:55:00;101965.5;;;4.07;97.81
22775;BME280;11554;51.106;3.684;2023-04-26T23:00:00;101967.01000000001;;;4.21;98.98
22775;BME280;11554;51.106;3.684;2023-04-26T23:05:00;101975.64;;;4.25;98.54
22775;BME280;11554;51.106;3.684;2023-04-26T23:10:00;101978.47;;;4.17;97.85
22775;BME280;11554;51.106;3.684;2023-04-26T23:15:00;101983.81000000001;;;4.12;97.78
22775;BME280;11554;51.106;3.684;2023-04-26T23:20:00;101986.86;;;4.33;99.28
22775;BME280;11554;51.106;3.684;2023-04-26T23:25:00;101994.95;;;4.30;98.33
22775;BME280;11554;51.106;3.684;2023-04-26T23:30:00;101998.82;;;4.27;98.11
22775;BME280;11554;51.106;3.684;2023-04-26T23:35:00;102001.37;;;4.26;97.93
22775;BME280;11554;51.106;3.684;2023-04-26T23:40:00;101998.51999999999;;;4.15;97.73
22775;BME280;11554;51.106;3.684;2023-04-26T23:45:00;102013.34000000001;;;4.12;97.22
22775;BME280;11554;51.106;3.684;2023-04-26T23:50:00;102011.25;;;4.07;97.73
22775;BME280;11554;51.106;3.684;2023-04-26T23:55:00;102010.19;;;3.91;97.54
